createdAt,value
2022-12-11T00:01:13.399Z,7.90
2022-12-11T00:03:41.889Z,7.90
2022-12-11T00:06:14.475Z,7.90
2022-12-11T00:08:42.843Z,7.90
2022-12-11T00:11:12.946Z,7.80
2022-12-11T00:13:41.503Z,7.80
2022-12-11T00:16:10.604Z,7.80
2022-12-11T00:18:39.091Z,7.80
2022-12-11T00:21:10.299Z,7.80
2022-12-11T00:23:40.200Z,7.80
2022-12-11T00:26:10.450Z,7.80
2022-12-11T00:28:38.859Z,7.80
2022-12-11T00:31:08.733Z,7.70
2022-12-11T00:33:37.146Z,7.70
2022-12-11T00:36:11.708Z,7.70
2022-12-11T00:38:41.670Z,7.70
2022-12-11T00:41:10.403Z,7.70
2022-12-11T00:43:38.952Z,7.70
2022-12-11T00:46:07.498Z,7.70
2022-12-11T00:48:36.376Z,7.70
2022-12-11T00:51:05.133Z,7.70
2022-12-11T00:53:34.044Z,7.70
2022-12-11T00:56:09.986Z,7.70
2022-12-11T00:58:38.291Z,7.70
2022-12-11T01:01:09.148Z,7.70
2022-12-11T01:03:37.979Z,7.80
2022-12-11T01:06:07.030Z,7.80
2022-12-11T01:08:38.719Z,7.80
2022-12-11T01:11:10.045Z,7.80
2022-12-11T01:13:39.006Z,7.80
2022-12-11T01:16:09.164Z,7.70
2022-12-11T01:18:37.973Z,7.80
2022-12-11T01:21:11.302Z,7.70
2022-12-11T01:23:40.296Z,7.70
2022-12-11T01:26:12.410Z,7.70
2022-12-11T01:28:41.236Z,7.70
2022-12-11T01:31:10.121Z,7.70
2022-12-11T01:33:38.910Z,7.70
2022-12-11T01:36:10.091Z,7.70
2022-12-11T01:38:38.428Z,7.70
2022-12-11T01:41:07.097Z,7.80
2022-12-11T01:43:37.163Z,7.80
2022-12-11T01:46:05.768Z,7.80
2022-12-11T01:48:39.230Z,7.80
2022-12-11T01:51:10.504Z,7.80
2022-12-11T01:53:44.111Z,7.80
2022-12-11T01:56:12.583Z,7.80
2022-12-11T01:58:45.394Z,7.80
2022-12-11T02:01:21.089Z,7.80
2022-12-11T02:03:49.746Z,7.80
2022-12-11T02:06:37.003Z,7.80
2022-12-11T02:09:08.315Z,7.80
2022-12-11T02:11:47.238Z,7.80
2022-12-11T02:14:29.228Z,7.80
2022-12-11T02:17:05.710Z,7.80
2022-12-11T02:19:50.322Z,7.80
2022-12-11T02:22:29.199Z,7.80
2022-12-11T02:25:09.233Z,7.80
2022-12-11T02:27:43.015Z,7.80
2022-12-11T02:30:14.946Z,7.80
2022-12-11T02:32:49.108Z,7.90
2022-12-11T02:35:22.491Z,7.90
2022-12-11T02:37:57.500Z,7.90
2022-12-11T02:40:30.683Z,7.90
2022-12-11T02:43:04.041Z,7.90
2022-12-11T02:45:35.023Z,7.90
2022-12-11T02:48:06.843Z,7.90
2022-12-11T02:50:37.428Z,7.90
2022-12-11T02:53:07.517Z,7.90
2022-12-11T02:55:39.116Z,8.00
2022-12-11T02:58:14.025Z,7.90
2022-12-11T03:00:45.150Z,7.90
2022-12-11T03:03:13.864Z,7.90
2022-12-11T03:05:43.055Z,7.90
2022-12-11T03:08:12.322Z,7.90
2022-12-11T03:10:40.839Z,7.90
2022-12-11T03:13:09.152Z,7.90
2022-12-11T03:15:47.828Z,7.90
2022-12-11T03:18:28.763Z,7.90
2022-12-11T03:21:06.084Z,7.90
2022-12-11T03:23:41.195Z,7.90
2022-12-11T03:26:14.227Z,7.90
2022-12-11T03:28:46.796Z,7.90
2022-12-11T03:31:21.640Z,7.90
2022-12-11T03:33:55.407Z,7.90
2022-12-11T03:36:27.950Z,7.90
2022-12-11T03:39:00.744Z,7.90
2022-12-11T03:41:32.293Z,7.90
2022-12-11T03:44:00.875Z,7.90
2022-12-11T03:46:32.620Z,7.90
2022-12-11T03:49:06.670Z,7.90
2022-12-11T03:51:36.897Z,8.00
2022-12-11T03:54:05.682Z,7.90
2022-12-11T03:56:37.660Z,7.90
2022-12-11T03:59:06.124Z,7.90
2022-12-11T04:01:34.464Z,8.00
2022-12-11T04:04:04.251Z,7.90
2022-12-11T04:06:32.706Z,7.90
2022-12-11T04:09:01.176Z,8.00
2022-12-11T04:11:39.633Z,8.00
2022-12-11T04:14:28.482Z,8.00
2022-12-11T04:16:57.799Z,8.00
2022-12-11T04:19:45.572Z,8.00
2022-12-11T04:22:32.897Z,8.00
2022-12-11T04:25:01.464Z,8.00
2022-12-11T04:27:47.563Z,8.00
2022-12-11T04:30:18.020Z,8.00
2022-12-11T04:32:46.505Z,7.90
2022-12-11T04:35:16.479Z,7.90
2022-12-11T04:37:44.834Z,7.90
2022-12-11T04:40:15.862Z,7.90
2022-12-11T04:42:44.473Z,7.90
2022-12-11T04:45:13.921Z,7.90
2022-12-11T04:47:42.837Z,7.90
2022-12-11T04:50:13.280Z,7.80
2022-12-11T04:52:43.711Z,7.80
2022-12-11T04:55:13.199Z,7.80
2022-12-11T04:57:42.081Z,7.80
2022-12-11T05:00:13.402Z,7.70
2022-12-11T05:02:43.507Z,7.70
2022-12-11T05:05:13.135Z,7.70
2022-12-11T05:07:43.648Z,7.70
2022-12-11T05:10:12.039Z,7.70
2022-12-11T05:12:40.442Z,7.60
2022-12-11T05:15:10.046Z,7.60
2022-12-11T05:17:38.924Z,7.60
2022-12-11T05:20:08.509Z,7.60
2022-12-11T05:22:37.240Z,7.50
2022-12-11T05:25:08.222Z,7.50
2022-12-11T05:27:36.647Z,7.40
2022-12-11T05:30:06.068Z,7.40
2022-12-11T05:32:34.623Z,7.40
2022-12-11T05:35:03.777Z,7.40
2022-12-11T05:37:34.037Z,7.40
2022-12-11T05:40:02.552Z,7.40
2022-12-11T05:42:32.359Z,7.40
2022-12-11T05:45:00.616Z,7.40
2022-12-11T05:47:28.945Z,7.30
2022-12-11T05:49:57.371Z,7.30
2022-12-11T05:52:25.699Z,7.30
2022-12-11T05:54:54.060Z,7.30
2022-12-11T05:57:22.472Z,7.20
2022-12-11T05:59:52.266Z,7.20
2022-12-11T06:02:20.723Z,7.10
2022-12-11T06:04:49.296Z,7.10
2022-12-11T06:07:17.801Z,7.00
2022-12-11T06:09:46.316Z,7.00
2022-12-11T06:12:14.710Z,7.10
2022-12-11T06:14:43.188Z,7.10
2022-12-11T06:17:12.943Z,7.10
2022-12-11T06:19:41.365Z,7.10
2022-12-11T06:22:09.839Z,7.00
2022-12-11T06:24:38.458Z,7.10
2022-12-11T06:27:06.762Z,7.10
2022-12-11T06:29:35.776Z,7.10
2022-12-11T06:32:04.357Z,7.10
2022-12-11T06:34:34.232Z,7.10
2022-12-11T06:37:02.746Z,7.10
2022-12-11T06:39:31.287Z,7.10
2022-12-11T06:41:59.743Z,7.10
2022-12-11T06:44:28.323Z,7.10
2022-12-11T06:46:56.736Z,7.10
2022-12-11T06:49:25.227Z,7.10
2022-12-11T06:51:54.956Z,7.00
2022-12-11T06:54:27.105Z,6.90
2022-12-11T06:56:55.663Z,6.90
2022-12-11T06:59:24.323Z,6.90
2022-12-11T07:01:52.858Z,6.90
2022-12-11T07:04:24.705Z,6.80
2022-12-11T07:06:54.849Z,6.80
2022-12-11T07:09:24.000Z,6.80
2022-12-11T07:11:52.936Z,6.80
2022-12-11T07:14:21.560Z,6.70
2022-12-11T07:16:50.068Z,6.70
2022-12-11T07:19:18.646Z,6.70
2022-12-11T07:21:46.926Z,6.80
2022-12-11T07:24:16.910Z,6.70
2022-12-11T07:26:45.380Z,6.80
2022-12-11T07:29:13.782Z,6.80
2022-12-11T07:31:42.331Z,6.80
2022-12-11T07:34:14.168Z,6.80
2022-12-11T07:36:43.011Z,6.80
2022-12-11T07:39:13.056Z,6.70
2022-12-11T07:41:43.247Z,6.70
2022-12-11T07:44:12.547Z,6.70
2022-12-11T07:46:41.787Z,6.70
2022-12-11T07:49:10.153Z,6.70
2022-12-11T07:51:39.839Z,6.60
2022-12-11T07:54:12.067Z,6.60
2022-12-11T07:56:43.989Z,6.50
2022-12-11T07:59:12.932Z,6.50
2022-12-11T08:01:42.553Z,6.40
2022-12-11T08:04:15.573Z,6.30
2022-12-11T08:06:44.824Z,6.30
2022-12-11T08:09:21.059Z,6.20
2022-12-11T08:11:51.781Z,6.10
2022-12-11T08:14:20.869Z,6.00
2022-12-11T08:16:49.414Z,6.00
2022-12-11T08:19:18.835Z,6.10
2022-12-11T08:21:47.166Z,6.00
2022-12-11T08:24:16.404Z,6.00
2022-12-11T08:26:46.234Z,6.00
2022-12-11T08:29:16.291Z,6.00
2022-12-11T08:31:44.743Z,6.00
2022-12-11T08:34:14.227Z,6.00
2022-12-11T08:36:43.935Z,5.90
2022-12-11T08:39:12.446Z,5.90
2022-12-11T08:41:40.899Z,5.90
2022-12-11T08:44:16.269Z,5.90
2022-12-11T08:46:46.986Z,5.90
2022-12-11T08:49:15.371Z,6.00
2022-12-11T08:51:43.822Z,6.00
2022-12-11T08:54:12.310Z,6.10
2022-12-11T08:56:40.820Z,6.10
2022-12-11T08:59:09.421Z,6.20
2022-12-11T09:01:37.889Z,6.20
2022-12-11T09:04:07.762Z,6.30
2022-12-11T09:06:36.303Z,6.20
2022-12-11T09:09:05.624Z,6.30
2022-12-11T09:11:36.711Z,6.30
2022-12-11T09:14:07.854Z,6.30
2022-12-11T09:16:40.370Z,6.30
2022-12-11T09:19:14.126Z,6.20
2022-12-11T09:21:43.829Z,6.20
2022-12-11T09:24:13.545Z,6.20
2022-12-11T09:26:42.251Z,6.30
2022-12-11T09:29:14.508Z,6.30
2022-12-11T09:31:43.469Z,6.20
2022-12-11T09:34:14.785Z,6.20
2022-12-11T09:36:45.352Z,6.20
2022-12-11T09:39:15.248Z,6.30
2022-12-11T09:41:54.135Z,6.30
2022-12-11T09:44:44.538Z,6.30
2022-12-11T09:47:22.109Z,6.30
2022-12-11T09:49:58.108Z,6.30
2022-12-11T09:52:35.613Z,6.40
2022-12-11T09:55:11.213Z,6.40
2022-12-11T09:57:49.602Z,6.40
2022-12-11T10:00:25.703Z,6.40
2022-12-11T10:03:23.946Z,6.40
2022-12-11T10:06:04.471Z,6.40
2022-12-11T10:08:40.159Z,6.50
2022-12-11T10:11:25.122Z,6.50
2022-12-11T10:14:01.849Z,6.60
2022-12-11T10:16:37.133Z,6.70
2022-12-11T10:19:05.647Z,6.80
2022-12-11T10:21:43.642Z,6.90
2022-12-11T10:24:41.908Z,7.10
2022-12-11T10:27:19.301Z,7.30
2022-12-11T10:29:48.505Z,7.30
2022-12-11T10:32:24.570Z,7.10
2022-12-11T10:35:00.584Z,7.10
2022-12-11T10:37:30.436Z,7.00
2022-12-11T10:39:58.839Z,7.00
2022-12-11T10:42:27.252Z,6.90
2022-12-11T10:45:00.573Z,6.90
2022-12-11T10:47:30.058Z,6.80
2022-12-11T10:50:00.221Z,6.60
2022-12-11T10:52:34.488Z,6.60
2022-12-11T10:55:05.846Z,6.70
2022-12-11T10:57:36.873Z,6.80
2022-12-11T11:00:07.537Z,6.60
2022-12-11T11:02:37.682Z,6.20
2022-12-11T11:05:15.235Z,6.40
2022-12-11T11:07:45.380Z,6.40
2022-12-11T11:10:18.907Z,6.50
2022-12-11T11:12:48.828Z,6.60
2022-12-11T11:15:19.860Z,6.60
2022-12-11T11:17:55.140Z,6.60
2022-12-11T11:20:26.701Z,6.60
2022-12-11T11:22:58.731Z,6.60
2022-12-11T11:25:30.268Z,6.60
2022-12-11T11:28:01.363Z,6.60
2022-12-11T11:30:32.455Z,6.60
2022-12-11T11:33:06.139Z,6.60
2022-12-11T11:35:34.639Z,6.50
2022-12-11T11:38:14.355Z,6.50
2022-12-11T11:40:46.887Z,6.50
2022-12-11T11:43:22.702Z,6.50
2022-12-11T11:45:58.688Z,6.50
2022-12-11T11:48:36.445Z,6.50
2022-12-11T11:51:14.806Z,6.50
2022-12-11T11:53:49.331Z,6.40
2022-12-11T11:56:26.782Z,6.40
2022-12-11T11:59:12.888Z,6.40
2022-12-11T12:01:43.218Z,6.40
2022-12-11T12:04:13.227Z,6.50
2022-12-11T12:07:15.405Z,6.40
2022-12-11T12:09:54.630Z,6.40
2022-12-11T12:12:34.621Z,6.40
2022-12-11T12:15:25.439Z,6.40
2022-12-11T12:17:56.517Z,6.40
2022-12-11T12:20:40.046Z,6.40
2022-12-11T12:23:30.724Z,6.40
2022-12-11T12:26:26.478Z,6.40
2022-12-11T12:29:07.409Z,6.40
2022-12-11T12:32:01.449Z,6.50
2022-12-11T12:34:41.555Z,6.50
2022-12-11T12:37:17.383Z,6.50
2022-12-11T12:39:57.471Z,6.60
2022-12-11T12:42:38.823Z,6.50
2022-12-11T12:45:18.591Z,6.50
2022-12-11T12:47:53.378Z,6.50
2022-12-11T12:50:25.138Z,6.50
2022-12-11T12:52:55.238Z,6.60
2022-12-11T12:55:26.219Z,6.60
2022-12-11T12:57:58.610Z,6.50
2022-12-11T13:00:29.072Z,6.40
2022-12-11T13:02:58.188Z,6.40
2022-12-11T13:05:29.435Z,6.40
2022-12-11T13:08:00.159Z,6.50
2022-12-11T13:10:32.195Z,6.50
2022-12-11T13:13:03.040Z,6.40
2022-12-11T13:15:35.768Z,6.40
2022-12-11T13:18:07.882Z,6.40
2022-12-11T13:20:51.088Z,6.40
2022-12-11T13:23:28.114Z,6.40
2022-12-11T13:25:58.023Z,6.50
2022-12-11T13:28:33.990Z,6.40
2022-12-11T13:31:22.908Z,6.30
2022-12-11T13:33:53.980Z,6.30
2022-12-11T13:36:32.670Z,6.40
2022-12-11T13:39:05.780Z,6.30
2022-12-11T13:41:38.278Z,6.40
2022-12-11T13:44:09.446Z,6.30
2022-12-11T13:46:41.045Z,6.30
2022-12-11T13:49:19.744Z,6.30
2022-12-11T13:51:53.893Z,6.30
2022-12-11T13:54:22.307Z,6.30
2022-12-11T13:57:02.711Z,6.30
2022-12-11T13:59:37.113Z,6.30
2022-12-11T14:02:15.550Z,6.30
2022-12-11T14:04:44.565Z,6.30
2022-12-11T14:07:13.648Z,6.40
2022-12-11T14:09:46.488Z,6.40
2022-12-11T14:12:18.689Z,6.40
2022-12-11T14:14:52.335Z,6.30
2022-12-11T14:17:25.761Z,6.40
2022-12-11T14:19:59.388Z,6.40
2022-12-11T14:22:31.310Z,6.40
2022-12-11T14:25:03.503Z,6.50
2022-12-11T14:27:32.405Z,6.40
2022-12-11T14:30:12.684Z,6.40
2022-12-11T14:32:45.525Z,6.40
2022-12-11T14:35:24.192Z,6.50
2022-12-11T14:37:53.483Z,6.50
2022-12-11T14:40:28.104Z,6.50
2022-12-11T14:43:00.717Z,6.40
2022-12-11T14:45:36.028Z,6.40
2022-12-11T14:48:10.815Z,6.30
2022-12-11T14:50:43.741Z,6.30
2022-12-11T14:53:16.719Z,6.20
2022-12-11T14:55:45.334Z,6.20
2022-12-11T14:58:18.604Z,6.20
2022-12-11T15:00:58.584Z,6.20
2022-12-11T15:03:33.615Z,6.20
2022-12-11T15:06:02.414Z,6.20
2022-12-11T15:08:32.611Z,6.20
2022-12-11T15:11:05.727Z,6.00
2022-12-11T15:13:35.749Z,5.80
2022-12-11T15:16:08.770Z,5.70
2022-12-11T15:18:39.516Z,5.70
2022-12-11T15:21:10.767Z,5.70
2022-12-11T15:23:51.891Z,5.70
2022-12-11T15:26:20.729Z,5.60
2022-12-11T15:28:49.254Z,5.60
2022-12-11T15:31:28.392Z,5.60
2022-12-11T15:33:57.169Z,5.60
2022-12-11T15:36:27.770Z,5.60
2022-12-11T15:38:56.151Z,5.70
2022-12-11T15:41:26.143Z,5.60
2022-12-11T15:43:58.979Z,5.50
2022-12-11T15:46:29.540Z,5.60
2022-12-11T15:48:58.562Z,5.60
2022-12-11T15:51:27.650Z,5.60
2022-12-11T15:53:56.198Z,5.60
2022-12-11T15:56:24.570Z,5.60
2022-12-11T15:58:53.003Z,5.60
2022-12-11T16:01:21.516Z,5.50
2022-12-11T16:03:51.463Z,5.50
2022-12-11T16:06:20.039Z,5.50
2022-12-11T16:08:48.480Z,5.50
2022-12-11T16:11:16.924Z,5.40
2022-12-11T16:13:45.496Z,5.40
2022-12-11T16:16:13.858Z,5.40
2022-12-11T16:18:42.314Z,5.40
2022-12-11T16:21:16.773Z,5.50
2022-12-11T16:23:48.290Z,5.50
2022-12-11T16:26:17.071Z,5.40
2022-12-11T16:28:45.603Z,5.50
2022-12-11T16:31:15.599Z,5.40
2022-12-11T16:33:44.811Z,5.40
2022-12-11T16:36:16.079Z,5.40
2022-12-11T16:38:51.586Z,5.40
2022-12-11T16:41:22.912Z,5.50
2022-12-11T16:43:51.826Z,5.40
2022-12-11T16:46:20.469Z,5.40
2022-12-11T16:48:49.328Z,5.40
2022-12-11T16:51:19.324Z,5.40
2022-12-11T16:53:47.646Z,5.40
2022-12-11T16:56:16.019Z,5.40
2022-12-11T16:58:44.325Z,5.40
2022-12-11T17:01:13.955Z,5.40
2022-12-11T17:03:43.715Z,5.40
2022-12-11T17:06:14.524Z,5.40
2022-12-11T17:08:44.735Z,5.40
2022-12-11T17:11:15.553Z,5.40
2022-12-11T17:13:44.271Z,5.40
2022-12-11T17:16:15.043Z,5.30
2022-12-11T17:18:44.408Z,5.30
2022-12-11T17:21:15.299Z,5.30
2022-12-11T17:23:45.579Z,5.30
2022-12-11T17:26:14.346Z,5.30
2022-12-11T17:28:43.207Z,5.30
2022-12-11T17:31:14.623Z,5.30
2022-12-11T17:33:43.476Z,5.30
2022-12-11T17:36:15.583Z,5.30
2022-12-11T17:38:45.933Z,5.20
2022-12-11T17:41:33.269Z,5.20
2022-12-11T17:44:01.652Z,5.20
2022-12-11T17:46:30.263Z,5.30
2022-12-11T17:49:00.263Z,5.30
2022-12-11T17:51:28.759Z,5.20
2022-12-11T17:53:58.688Z,5.10
2022-12-11T17:56:28.134Z,5.10
2022-12-11T17:58:56.687Z,5.10
2022-12-11T18:01:25.203Z,5.10
2022-12-11T18:03:53.838Z,5.20
2022-12-11T18:06:23.197Z,5.30
2022-12-11T18:08:51.639Z,5.30
2022-12-11T18:11:22.815Z,5.20
2022-12-11T18:13:53.399Z,5.20
2022-12-11T18:16:24.441Z,5.20
2022-12-11T18:18:53.570Z,5.20
2022-12-11T18:21:25.689Z,5.30
2022-12-11T18:23:54.381Z,5.30
2022-12-11T18:26:24.411Z,5.30
2022-12-11T18:28:53.345Z,5.30
2022-12-11T18:31:22.982Z,5.30
2022-12-11T18:33:52.026Z,5.30
2022-12-11T18:36:21.475Z,5.30
2022-12-11T18:38:49.839Z,5.30
2022-12-11T18:41:19.686Z,5.30
2022-12-11T18:43:49.499Z,5.30
2022-12-11T18:46:20.818Z,5.30
2022-12-11T18:48:49.668Z,5.30
2022-12-11T18:51:20.250Z,5.30
2022-12-11T18:53:48.710Z,5.30
2022-12-11T18:56:19.571Z,5.30
2022-12-11T18:58:49.538Z,5.30
2022-12-11T19:01:20.858Z,5.30
2022-12-11T19:03:51.287Z,5.30
2022-12-11T19:06:24.301Z,5.30
2022-12-11T19:08:53.216Z,5.30
2022-12-11T19:11:24.601Z,5.30
2022-12-11T19:13:56.626Z,5.30
2022-12-11T19:16:29.732Z,5.30
2022-12-11T19:18:59.825Z,5.40
2022-12-11T19:21:28.694Z,5.40
2022-12-11T19:23:57.218Z,5.40
2022-12-11T19:26:25.751Z,5.40
2022-12-11T19:29:00.014Z,5.40
2022-12-11T19:31:30.764Z,5.30
2022-12-11T19:34:00.044Z,5.30
2022-12-11T19:36:30.497Z,5.30
2022-12-11T19:39:01.811Z,5.30
2022-12-11T19:41:31.969Z,5.30
2022-12-11T19:44:01.815Z,5.30
2022-12-11T19:46:31.260Z,5.30
2022-12-11T19:49:00.942Z,5.30
2022-12-11T19:51:31.369Z,5.30
2022-12-11T19:54:02.389Z,5.30
2022-12-11T19:56:31.800Z,5.40
2022-12-11T19:59:03.356Z,5.40
2022-12-11T20:01:33.557Z,5.40
2022-12-11T20:04:03.533Z,5.30
2022-12-11T20:06:33.518Z,5.30
2022-12-11T20:09:03.553Z,5.40
2022-12-11T20:11:33.542Z,5.30
2022-12-11T20:14:03.667Z,5.40
2022-12-11T20:17:09.234Z,5.30
2022-12-11T20:19:21.097Z,5.30
2022-12-11T20:21:49.590Z,5.30
2022-12-11T20:24:18.544Z,5.30
2022-12-11T20:26:47.199Z,5.30
2022-12-11T20:29:17.786Z,5.30
2022-12-11T20:31:47.600Z,5.20
2022-12-11T20:34:16.122Z,5.20
2022-12-11T20:36:45.123Z,5.20
2022-12-11T20:39:13.483Z,5.10
2022-12-11T20:41:42.099Z,4.90
2022-12-11T20:44:11.465Z,4.90
2022-12-11T20:46:41.774Z,4.80
2022-12-11T20:49:13.311Z,4.80
2022-12-11T20:51:42.606Z,4.80
2022-12-11T20:54:11.538Z,4.80
2022-12-11T20:56:40.866Z,4.70
2022-12-11T20:59:09.429Z,4.60
2022-12-11T21:01:37.937Z,4.50
2022-12-11T21:04:07.876Z,4.40
2022-12-11T21:06:38.764Z,4.40
2022-12-11T21:09:09.595Z,4.30
2022-12-11T21:11:38.125Z,4.30
2022-12-11T21:14:08.059Z,4.20
2022-12-11T21:16:37.820Z,4.20
2022-12-11T21:19:11.308Z,4.10
2022-12-11T21:21:45.220Z,4.10
2022-12-11T21:24:16.907Z,4.00
2022-12-11T21:26:47.087Z,4.00
2022-12-11T21:29:16.393Z,3.90
2022-12-11T21:31:45.057Z,3.90
2022-12-11T21:34:15.077Z,3.80
2022-12-11T21:36:43.390Z,3.80
2022-12-11T21:39:12.584Z,3.70
2022-12-11T21:41:41.695Z,3.70
2022-12-11T21:46:59.830Z,3.60
2022-12-11T21:49:29.673Z,3.60
2022-12-11T21:51:58.085Z,3.60
2022-12-11T21:54:26.649Z,3.50
2022-12-11T21:56:55.283Z,3.50
2022-12-11T21:59:23.827Z,3.50
2022-12-11T22:01:52.380Z,3.40
2022-12-11T22:04:21.242Z,3.40
2022-12-11T22:06:50.934Z,3.40
2022-12-11T22:09:19.341Z,3.30
2022-12-11T22:11:51.513Z,3.30
2022-12-11T22:14:22.493Z,3.20
2022-12-11T22:16:51.102Z,3.20
2022-12-11T22:19:19.842Z,3.20
2022-12-11T22:21:48.273Z,3.20
2022-12-11T22:24:19.193Z,3.30
2022-12-11T22:26:47.635Z,3.20
2022-12-11T22:29:16.196Z,3.10
2022-12-11T22:31:44.686Z,3.10
2022-12-11T22:34:13.007Z,3.00
2022-12-11T22:36:41.417Z,3.10
2022-12-11T22:39:09.906Z,3.10
2022-12-11T22:41:42.339Z,3.10
2022-12-11T22:44:14.798Z,3.10
2022-12-11T22:46:49.465Z,3.10
2022-12-11T22:49:19.087Z,3.00
2022-12-11T22:51:47.619Z,3.00
2022-12-11T22:54:15.983Z,3.00
2022-12-11T22:56:45.786Z,3.00
2022-12-11T22:59:14.153Z,2.90
2022-12-11T23:01:42.646Z,2.90
2022-12-11T23:04:11.152Z,2.80
2022-12-11T23:06:39.792Z,2.80
2022-12-11T23:09:08.566Z,2.80
2022-12-11T23:11:38.962Z,2.80
2022-12-11T23:14:12.457Z,2.80
2022-12-11T23:16:40.911Z,2.70
2022-12-11T23:19:09.344Z,2.70
2022-12-11T23:21:38.067Z,2.70
2022-12-11T23:24:07.595Z,2.70
2022-12-11T23:26:36.095Z,2.60
2022-12-11T23:29:06.012Z,2.50
2022-12-11T23:31:37.294Z,2.50
2022-12-11T23:34:05.654Z,2.40
2022-12-11T23:36:34.850Z,2.40
2022-12-11T23:39:03.367Z,2.40
2022-12-11T23:41:32.580Z,2.30
2022-12-11T23:44:01.091Z,2.30
2022-12-11T23:46:29.605Z,2.30
2022-12-11T23:48:59.382Z,2.30
2022-12-11T23:51:27.846Z,2.30
2022-12-11T23:53:56.398Z,2.20
2022-12-11T23:56:26.844Z,2.20
2022-12-11T23:58:56.149Z,2.20
